Terminal Aerodrome Forecast
Issued by NWS Rapid City, SD

Home | Current Version | Previous Version | Text Only | Print | Product List | Glossary Off
Versions: 1 2 3 4 5 6 7 8 9 10 11 12 13 14 15 16 17 18 19

000
FTUS43 KUNR 271100
TAFRAP
TAF
KRAP 271120Z 2712/2812 VRB05KT P6SM SCT004 BKN015
      TEMPO 2712/2716 BKN004
     FM271700 15008KT P6SM BKN080=

USA.gov is the U.S. government's official web portal to all federal, state and local government web resources and services.